Time;durP1;ratioP1;P1;durP2;ratioP2;P2;SDS_P1;SDS_P2;PMS_P1;PMS_P2;Temp;Humidity;BMP_temperature;BMP_pressure;BME280_temperature;BME280_humidity;BME280_pressure;Samples;Min_cycle;Max_cycle;Signal;HPM_P1;HPM_P2
2021/05/05 00:02:13;;;;;;;6.40;1.83;;;7.00;99.90;;;;;;5097693;28;20036;-66
2021/05/05 00:04:39;;;;;;;15.95;2.15;;;7.10;99.90;;;;;;5099335;28;20573;-66
2021/05/05 00:07:05;;;;;;;11.05;1.23;;;7.10;99.90;;;;;;5097604;28;20411;-65
2021/05/05 00:09:30;;;;;;;12.25;1.17;;;7.00;99.90;;;;;;5099810;28;20024;-66
2021/05/05 00:11:56;;;;;;;14.05;1.92;;;6.90;99.90;;;;;;5098073;28;20057;-66
2021/05/05 00:14:22;;;;;;;7.75;1.23;;;6.90;99.90;;;;;;5098918;28;20028;-66
2021/05/05 00:16:48;;;;;;;14.80;1.00;;;6.80;99.90;;;;;;5101035;28;20118;-64
2021/05/05 00:19:14;;;;;;;21.60;3.00;;;6.90;99.90;;;;;;5100012;28;20032;-65
2021/05/05 00:21:40;;;;;;;8.50;1.20;;;6.90;99.90;;;;;;5098116;28;20558;-65
2021/05/05 00:24:07;;;;;;;5.50;0.63;;;6.90;99.90;;;;;;5101184;28;20061;-64
2021/05/05 00:26:32;;;;;;;6.20;1.02;;;6.90;99.90;;;;;;5103859;28;20046;-66
2021/05/05 00:28:58;;;;;;;3.97;0.82;;;6.90;99.90;;;;;;5100188;28;20043;-65
2021/05/05 00:31:25;;;;;;;7.15;0.98;;;6.80;99.90;;;;;;5103351;28;20036;-66
2021/05/05 00:33:50;;;;;;;3.83;0.70;;;6.80;99.90;;;;;;5102867;28;20110;-65
2021/05/05 00:36:16;;;;;;;7.40;0.50;;;6.70;99.90;;;;;;5110683;27;20069;-66
2021/05/05 00:38:41;;;;;;;6.85;1.45;;;6.60;99.90;;;;;;5102997;28;20093;-62
2021/05/05 00:41:09;;;;;;;7.18;1.08;;;6.50;99.90;;;;;;5099804;28;20036;-65
2021/05/05 00:43:35;;;;;;;5.05;0.80;;;6.40;99.90;;;;;;5104087;28;20024;-64
2021/05/05 00:46:00;;;;;;;4.00;0.93;;;6.40;99.90;;;;;;5100784;28;20508;-66
2021/05/05 00:48:27;;;;;;;4.60;0.82;;;6.30;99.90;;;;;;5100827;28;20044;-66
2021/05/05 00:50:54;;;;;;;10.05;0.80;;;6.30;99.90;;;;;;5098507;28;20036;-66
2021/05/05 00:53:19;;;;;;;17.38;1.25;;;6.30;99.90;;;;;;5102324;28;20049;-65
2021/05/05 00:55:45;;;;;;;14.50;1.73;;;6.30;99.90;;;;;;5101061;28;20489;-65
2021/05/05 00:58:10;;;;;;;7.88;1.83;;;6.30;99.90;;;;;;5102027;28;20589;-66
2021/05/05 01:00:36;;;;;;;18.48;3.70;;;6.30;99.90;;;;;;5101317;27;20390;-66
2021/05/05 01:03:02;;;;;;;10.23;1.45;;;6.30;99.90;;;;;;5104061;28;20024;-66
2021/05/05 01:05:28;;;;;;;11.13;1.50;;;6.30;99.90;;;;;;5101361;28;20038;-65
2021/05/05 01:07:53;;;;;;;8.52;1.90;;;6.30;99.90;;;;;;5102070;28;20027;-69
2021/05/05 01:10:20;;;;;;;9.23;1.40;;;6.30;99.90;;;;;;5102008;28;20036;-67
2021/05/05 01:12:45;;;;;;;13.23;1.95;;;6.30;99.90;;;;;;5101771;27;20066;-66
2021/05/05 01:15:14;;;;;;;9.23;1.15;;;6.30;99.90;;;;;;5102912;27;20511;-66
2021/05/05 01:17:40;;;;;;;11.98;2.70;;;6.30;99.90;;;;;;5098995;28;20109;-66
2021/05/05 01:20:06;;;;;;;10.02;1.88;;;6.30;99.90;;;;;;5102484;27;20820;-69
2021/05/05 01:22:32;;;;;;;9.02;1.55;;;6.30;99.90;;;;;;5099640;28;20043;-66
2021/05/05 01:24:58;;;;;;;7.68;1.05;;;6.30;99.90;;;;;;5102205;28;20035;-65
2021/05/05 01:27:24;;;;;;;11.63;1.55;;;6.30;99.90;;;;;;5105141;27;20113;-65
2021/05/05 01:29:49;;;;;;;10.18;1.77;;;6.30;99.90;;;;;;5101914;28;20066;-66
2021/05/05 01:32:16;;;;;;;10.07;2.20;;;6.30;99.90;;;;;;5102088;28;20044;-65
2021/05/05 01:34:43;;;;;;;13.40;2.67;;;6.30;99.90;;;;;;5103356;28;20111;-66
2021/05/05 01:37:09;;;;;;;13.60;2.58;;;6.40;99.90;;;;;;5104641;27;20614;-67
2021/05/05 01:39:35;;;;;;;7.55;1.13;;;6.40;99.90;;;;;;5102760;28;20054;-65
2021/05/05 01:42:01;;;;;;;6.57;1.10;;;6.40;99.90;;;;;;5099971;28;20480;-67
2021/05/05 01:44:36;;;;;;;5.75;1.40;;;6.30;99.90;;;;;;5100535;28;20507;-66
2021/05/05 01:47:02;;;;;;;5.35;1.10;;;6.30;99.90;;;;;;5110529;28;20062;-66
2021/05/05 01:49:28;;;;;;;6.25;1.13;;;6.30;99.90;;;;;;5100432;28;20377;-66
2021/05/05 01:51:56;;;;;;;10.88;1.80;;;6.30;99.90;;;;;;5103374;28;20134;-66
2021/05/05 01:54:23;;;;;;;9.07;1.10;;;6.20;99.90;;;;;;5100067;28;20069;-65
2021/05/05 01:56:49;;;;;;;14.50;2.60;;;6.20;99.90;;;;;;5102842;28;20020;-66
2021/05/05 01:59:14;;;;;;;21.67;3.13;;;6.10;99.90;;;;;;5101446;28;20034;-64
2021/05/05 02:01:40;;;;;;;15.85;1.85;;;6.00;99.90;;;;;;5101334;28;20515;-66
2021/05/05 02:04:06;;;;;;;6.45;1.27;;;6.00;99.90;;;;;;5103788;28;20077;-66
2021/05/05 02:06:32;;;;;;;10.23;1.90;;;6.00;99.90;;;;;;5099454;28;20047;-67
2021/05/05 02:08:59;;;;;;;12.88;2.42;;;6.00;99.90;;;;;;5102382;28;20028;-63
2021/05/05 02:11:25;;;;;;;15.88;1.60;;;6.00;99.90;;;;;;5100380;28;20081;-67
2021/05/05 02:13:51;;;;;;;7.53;1.48;;;6.10;99.90;;;;;;5101921;28;20020;-67
2021/05/05 02:16:17;;;;;;;13.98;1.90;;;6.10;99.90;;;;;;5101596;28;20692;-66
2021/05/05 02:18:43;;;;;;;4.38;0.77;;;6.00;99.90;;;;;;5102939;28;20028;-65
2021/05/05 02:21:08;;;;;;;9.82;2.60;;;6.10;99.90;;;;;;5100583;28;20032;-63
2021/05/05 02:23:34;;;;;;;14.30;1.40;;;6.00;99.90;;;;;;5102063;28;20030;-64
2021/05/05 02:26:00;;;;;;;10.43;2.30;;;6.00;99.90;;;;;;5100719;27;20468;-66
2021/05/05 02:28:26;;;;;;;14.93;1.52;;;5.90;99.90;;;;;;5114996;27;20028;-65
2021/05/05 02:30:52;;;;;;;9.52;2.50;;;5.90;99.90;;;;;;5102080;28;20511;-66
2021/05/05 02:33:18;;;;;;;14.90;1.83;;;5.90;99.90;;;;;;5101080;28;20039;-71
2021/05/05 02:35:43;;;;;;;10.15;1.85;;;5.80;99.90;;;;;;5101027;28;20042;-64
2021/05/05 02:38:09;;;;;;;9.75;1.50;;;5.80;99.90;;;;;;5102612;27;20554;-66
2021/05/05 02:40:37;;;;;;;11.05;1.88;;;5.80;99.90;;;;;;5101029;28;20753;-66
2021/05/05 02:43:03;;;;;;;10.60;2.05;;;5.90;99.90;;;;;;5103335;27;20168;-64
2021/05/05 02:45:28;;;;;;;8.65;1.92;;;5.80;99.90;;;;;;5102184;28;20055;-64
2021/05/05 02:47:54;;;;;;;7.25;1.13;;;5.90;99.90;;;;;;5099346;28;20125;-67
2021/05/05 02:50:20;;;;;;;11.98;1.42;;;5.80;99.90;;;;;;5108553;28;20039;-63
2021/05/05 02:52:45;;;;;;;6.10;1.00;;;5.80;99.90;;;;;;5100415;28;20050;-66
2021/05/05 02:55:11;;;;;;;11.43;1.52;;;5.80;99.90;;;;;;5100143;28;20412;-63
2021/05/05 02:57:37;;;;;;;11.43;1.17;;;5.70;99.90;;;;;;5101743;27;20031;-64
2021/05/05 03:00:09;;;;;;;7.57;1.52;;;5.70;99.90;;;;;;5105654;28;20035;-66
2021/05/05 03:02:34;;;;;;;6.22;0.77;;;5.60;99.90;;;;;;5100424;28;20024;-66
2021/05/05 03:05:00;;;;;;;7.40;1.00;;;5.60;99.90;;;;;;5099073;28;20706;-66
2021/05/05 03:07:26;;;;;;;7.45;1.67;;;5.60;99.90;;;;;;5098830;28;20046;-62
2021/05/05 03:09:52;;;;;;;8.18;1.00;;;5.60;99.90;;;;;;5101499;28;20100;-66
2021/05/05 03:12:17;;;;;;;9.55;0.80;;;5.60;99.90;;;;;;5100300;28;20130;-65
2021/05/05 03:14:43;;;;;;;7.05;0.90;;;5.60;99.90;;;;;;5100295;28;20081;-66
2021/05/05 03:17:09;;;;;;;5.20;0.68;;;5.60;99.90;;;;;;5100900;28;20497;-64
2021/05/05 03:19:34;;;;;;;10.32;1.08;;;5.60;99.90;;;;;;5101671;28;20031;-65
2021/05/05 03:22:00;;;;;;;6.95;1.00;;;5.50;99.90;;;;;;5101844;28;20566;-66
2021/05/05 03:24:26;;;;;;;9.50;1.45;;;5.50;99.90;;;;;;5098959;28;20110;-66
2021/05/05 03:26:52;;;;;;;10.25;1.00;;;5.40;99.90;;;;;;5104017;28;20110;-66
2021/05/05 03:29:18;;;;;;;9.60;1.10;;;5.50;99.90;;;;;;5101072;28;20040;-64
2021/05/05 03:31:44;;;;;;;10.70;2.15;;;5.50;99.90;;;;;;5099974;28;20038;-65
2021/05/05 03:34:09;;;;;;;14.02;1.20;;;5.60;99.90;;;;;;5103341;28;20191;-65
2021/05/05 03:36:35;;;;;;;11.73;1.35;;;5.70;99.90;;;;;;5102088;28;20035;-64
2021/05/05 03:39:01;;;;;;;4.55;0.63;;;5.70;99.90;;;;;;5097954;28;20028;-66
2021/05/05 03:41:28;;;;;;;7.38;1.73;;;5.80;99.90;;;;;;5100744;28;20413;-65
2021/05/05 03:43:54;;;;;;;6.82;1.77;;;5.80;99.90;;;;;;5098767;28;20036;-66
2021/05/05 03:46:19;;;;;;;7.75;0.93;;;5.80;99.90;;;;;;5104220;28;20042;-65
2021/05/05 03:48:45;;;;;;;5.03;1.30;;;5.80;99.90;;;;;;5098886;28;20389;-65
2021/05/05 03:51:11;;;;;;;13.25;2.40;;;5.80;99.90;;;;;;5100749;28;21086;-66
2021/05/05 03:53:37;;;;;;;11.02;1.88;;;5.90;99.90;;;;;;5101107;28;20070;-65
2021/05/05 03:56:03;;;;;;;11.88;1.77;;;5.80;99.90;;;;;;5106408;28;20118;-63
2021/05/05 03:58:28;;;;;;;11.50;1.60;;;5.80;99.90;;;;;;5102451;28;20031;-66
2021/05/05 04:00:54;;;;;;;10.38;1.73;;;5.80;99.90;;;;;;5101882;28;20054;-66
2021/05/05 04:03:20;;;;;;;19.00;1.60;;;5.70;99.90;;;;;;5102785;27;20032;-66
2021/05/05 04:05:45;;;;;;;9.63;1.40;;;5.80;99.90;;;;;;5104287;28;20031;-65
2021/05/05 04:08:11;;;;;;;16.40;1.70;;;5.80;99.90;;;;;;5104174;28;20035;-65
2021/05/05 04:10:36;;;;;;;15.15;2.10;;;5.90;99.90;;;;;;5104519;27;20025;-67
2021/05/05 04:13:03;;;;;;;17.02;2.00;;;5.90;99.90;;;;;;5106023;28;20054;-65
2021/05/05 04:15:28;;;;;;;14.00;4.57;;;6.00;99.90;;;;;;5103327;28;20032;-65
2021/05/05 04:17:54;;;;;;;10.13;1.38;;;6.00;99.90;;;;;;5103180;28;20419;-65
2021/05/05 04:20:20;;;;;;;14.73;2.60;;;6.10;99.90;;;;;;5100757;28;20020;-65
2021/05/05 04:22:46;;;;;;;12.55;2.35;;;6.10;99.90;;;;;;5101989;28;20089;-65
2021/05/05 04:25:13;;;;;;;11.60;2.30;;;6.10;99.90;;;;;;5101015;28;20031;-65
2021/05/05 04:27:40;;;;;;;6.10;1.55;;;6.20;99.90;;;;;;5102902;27;20451;-65
2021/05/05 04:30:06;;;;;;;14.93;1.73;;;6.20;99.90;;;;;;5099357;28;20073;-65
2021/05/05 04:32:33;;;;;;;12.77;1.52;;;6.30;99.90;;;;;;5101376;28;20035;-65
2021/05/05 04:34:58;;;;;;;15.80;1.50;;;6.30;99.90;;;;;;5098326;28;20518;-65
2021/05/05 04:37:24;;;;;;;13.68;3.05;;;6.40;99.90;;;;;;5106268;27;20040;-65
2021/05/05 04:39:49;;;;;;;11.27;1.98;;;6.30;99.90;;;;;;5101331;28;20027;-65
2021/05/05 04:42:15;;;;;;;10.13;1.63;;;6.30;99.90;;;;;;5098572;28;20102;-65
2021/05/05 04:44:40;;;;;;;7.70;1.40;;;6.30;99.90;;;;;;5100167;27;20032;-65
2021/05/05 04:47:06;;;;;;;7.75;1.20;;;6.30;99.90;;;;;;5100081;27;20126;-65
2021/05/05 04:49:32;;;;;;;17.75;3.35;;;6.30;99.90;;;;;;5098995;28;20038;-65
2021/05/05 04:51:57;;;;;;;5.75;1.20;;;6.30;99.90;;;;;;5101141;27;20040;-65
2021/05/05 04:54:23;;;;;;;8.30;1.77;;;6.20;99.90;;;;;;5098892;28;20032;-65
2021/05/05 04:56:48;;;;;;;5.97;1.30;;;6.30;99.90;;;;;;5101410;28;20030;-65
2021/05/05 04:59:14;;;;;;;10.25;1.25;;;6.30;99.90;;;;;;5098200;28;20119;-65
2021/05/05 05:01:40;;;;;;;8.45;1.20;;;6.20;99.90;;;;;;5100742;28;20032;-65
2021/05/05 05:04:05;;;;;;;7.13;1.10;;;6.20;99.90;;;;;;5099276;28;20032;-65
2021/05/05 05:06:31;;;;;;;6.28;1.50;;;6.30;99.90;;;;;;5098609;28;20032;-64
2021/05/05 05:08:57;;;;;;;5.32;1.00;;;6.20;99.90;;;;;;5100552;28;20028;-64
2021/05/05 05:11:22;;;;;;;7.70;1.00;;;6.30;99.90;;;;;;5097536;28;20397;-65
2021/05/05 05:13:48;;;;;;;9.05;1.15;;;6.40;99.90;;;;;;5099412;28;20023;-65
2021/05/05 05:16:14;;;;;;;10.00;1.63;;;6.40;99.90;;;;;;5098390;28;20397;-65
2021/05/05 05:18:39;;;;;;;13.15;1.35;;;6.40;99.90;;;;;;5098982;28;20028;-65
2021/05/05 05:21:05;;;;;;;8.18;1.77;;;6.40;99.90;;;;;;5099413;28;20043;-65
2021/05/05 05:23:32;;;;;;;6.97;1.35;;;6.40;99.90;;;;;;5099935;28;20020;-65
2021/05/05 05:25:58;;;;;;;14.40;0.98;;;6.50;99.90;;;;;;5094310;27;20113;-65
2021/05/05 05:28:24;;;;;;;9.73;1.35;;;6.50;99.90;;;;;;5099881;27;20073;-65
2021/05/05 05:30:50;;;;;;;7.88;1.30;;;6.50;99.90;;;;;;5096508;28;20031;-65
2021/05/05 05:33:16;;;;;;;5.22;1.25;;;6.50;99.90;;;;;;5095964;28;20039;-65
2021/05/05 05:35:41;;;;;;;4.55;0.85;;;6.50;99.90;;;;;;5097479;28;20032;-65
2021/05/05 05:38:07;;;;;;;2.58;0.82;;;6.50;99.90;;;;;;5100275;27;20054;-65
2021/05/05 05:40:33;;;;;;;8.13;1.40;;;6.50;99.90;;;;;;5092927;28;20074;-65
2021/05/05 05:42:59;;;;;;;9.05;0.75;;;6.60;99.90;;;;;;5091584;28;20400;-65
2021/05/05 05:45:25;;;;;;;9.82;1.45;;;6.50;99.90;;;;;;5097299;28;20031;-65
2021/05/05 05:47:50;;;;;;;7.75;0.70;;;6.70;99.90;;;;;;5099800;28;20484;-65
2021/05/05 05:50:16;;;;;;;16.52;1.65;;;6.90;99.90;;;;;;5097324;28;20036;-65
2021/05/05 05:52:42;;;;;;;10.52;1.15;;;6.90;99.90;;;;;;5099247;28;20043;-65
2021/05/05 05:55:10;;;;;;;8.30;1.33;;;7.30;99.90;;;;;;5098674;28;20168;-65
2021/05/05 05:57:37;;;;;;;9.30;1.52;;;8.30;99.90;;;;;;5096803;28;20582;-66
2021/05/05 06:00:05;;;;;;;7.38;1.25;;;8.50;99.90;;;;;;5095109;28;20032;-65
2021/05/05 06:02:31;;;;;;;2.70;0.70;;;8.20;99.90;;;;;;5095725;28;20047;-65
2021/05/05 06:04:56;;;;;;;18.70;1.40;;;7.90;99.90;;;;;;5096816;28;20082;-65
2021/05/05 06:07:22;;;;;;;11.38;1.65;;;7.50;99.90;;;;;;5099381;28;20465;-65
2021/05/05 06:09:47;;;;;;;5.57;1.15;;;7.30;99.90;;;;;;5095581;27;20038;-65
2021/05/05 06:12:13;;;;;;;7.90;0.85;;;7.20;99.90;;;;;;5096271;28;20043;-65
2021/05/05 06:14:38;;;;;;;8.50;1.08;;;7.10;99.90;;;;;;5096357;27;20024;-65
2021/05/05 06:17:04;;;;;;;5.82;0.80;;;7.00;99.90;;;;;;5099234;28;20047;-65
2021/05/05 06:19:29;;;;;;;4.25;0.60;;;7.00;99.90;;;;;;5096654;28;20028;-65
2021/05/05 06:21:55;;;;;;;6.57;1.05;;;7.60;99.90;;;;;;5097825;28;20027;-65
2021/05/05 06:24:21;;;;;;;7.28;1.00;;;8.20;99.90;;;;;;5095113;28;20512;-65
2021/05/05 06:26:46;;;;;;;4.90;0.70;;;8.30;99.90;;;;;;5105940;27;20032;-66
2021/05/05 06:29:12;;;;;;;12.52;1.30;;;8.50;99.90;;;;;;5091308;28;20044;-65
2021/05/05 06:31:38;;;;;;;5.95;1.45;;;9.70;99.90;;;;;;5095371;27;20054;-66
2021/05/05 06:34:04;;;;;;;8.07;1.60;;;11.10;99.90;;;;;;5107797;27;20034;-66
2021/05/05 06:36:30;;;;;;;6.95;0.80;;;12.50;99.90;;;;;;5111818;27;20027;-66
2021/05/05 06:38:56;;;;;;;1.90;0.63;;;13.60;99.90;;;;;;5112042;27;20039;-66
2021/05/05 06:41:21;;;;;;;6.95;0.95;;;14.80;99.90;;;;;;5109739;27;20032;-67
2021/05/05 06:43:47;;;;;;;6.70;0.80;;;15.40;99.90;;;;;;5111662;27;20024;-66
2021/05/05 06:46:12;;;;;;;8.82;0.90;;;16.00;99.90;;;;;;5099574;28;20024;-66
2021/05/05 06:48:38;;;;;;;6.45;1.35;;;16.30;97.80;;;;;;5094788;28;20478;-67
2021/05/05 06:51:04;;;;;;;5.35;0.50;;;15.80;96.80;;;;;;5091967;28;20087;-66
2021/05/05 06:53:29;;;;;;;8.55;1.20;;;14.50;97.40;;;;;;5091616;28;20040;-67
2021/05/05 06:55:55;;;;;;;5.60;1.50;;;13.50;99.90;;;;;;5094344;28;20024;-66
2021/05/05 06:58:21;;;;;;;7.30;1.20;;;12.70;99.90;;;;;;5096400;28;20454;-66
2021/05/05 07:00:46;;;;;;;7.93;0.98;;;12.10;99.90;;;;;;5096755;28;20544;-66
2021/05/05 07:03:12;;;;;;;5.28;0.60;;;11.90;99.90;;;;;;5094334;28;20047;-66
2021/05/05 07:05:38;;;;;;;6.07;0.85;;;11.70;99.90;;;;;;5096585;28;20063;-66
2021/05/05 07:08:03;;;;;;;12.38;0.82;;;11.30;99.90;;;;;;5097818;28;20046;-65
2021/05/05 07:10:29;;;;;;;6.90;0.73;;;10.70;99.90;;;;;;5088513;28;20027;-66
2021/05/05 07:12:55;;;;;;;7.35;1.08;;;10.20;99.90;;;;;;5111834;27;20135;-65
2021/05/05 07:15:20;;;;;;;4.38;0.60;;;9.80;99.90;;;;;;5108079;27;20035;-65
2021/05/05 07:17:48;;;;;;;6.10;1.00;;;9.50;99.90;;;;;;5107988;27;20028;-65
2021/05/05 07:20:14;;;;;;;3.80;0.60;;;9.30;99.90;;;;;;5107622;28;20472;-65
2021/05/05 07:22:39;;;;;;;3.90;0.77;;;9.20;99.90;;;;;;5103389;28;20059;-66
2021/05/05 07:25:05;;;;;;;2.50;0.40;;;9.40;99.90;;;;;;5104894;27;20078;-66
2021/05/05 07:27:32;;;;;;;3.80;0.38;;;9.60;99.90;;;;;;5111413;27;20062;-65
2021/05/05 07:29:58;;;;;;;4.22;1.33;;;10.10;99.90;;;;;;5106784;28;20039;-66
2021/05/05 07:32:23;;;;;;;6.60;0.55;;;11.40;99.90;;;;;;5110694;27;20537;-66
2021/05/05 07:34:49;;;;;;;2.50;0.17;;;12.20;99.90;;;;;;5107917;27;20438;-66
2021/05/05 07:37:23;;;;;;;6.13;0.68;;;12.60;99.90;;;;;;5105723;27;20503;-68
2021/05/05 07:45:43;;;;;;;9.35;1.58;;;11.30;99.90;;;;;;5093218;28;20046;-66
2021/05/05 07:48:13;;;;;;;3.03;0.60;;;11.40;99.90;;;;;;5093254;28;20032;-65
2021/05/05 07:50:38;;;;;;;3.65;0.60;;;11.20;99.90;;;;;;5096413;28;20122;-65
2021/05/05 07:53:06;;;;;;;4.40;0.68;;;11.20;99.90;;;;;;5095592;28;20205;-66
2021/05/05 07:55:31;;;;;;;7.63;0.98;;;11.70;99.90;;;;;;5096832;28;20074;-65
2021/05/05 07:57:57;;;;;;;3.75;0.50;;;11.70;99.90;;;;;;5095766;28;20493;-65
2021/05/05 08:00:23;;;;;;;4.20;0.60;;;11.40;99.90;;;;;;5095563;28;20082;-65
2021/05/05 08:02:49;;;;;;;3.22;0.60;;;11.00;99.90;;;;;;5097456;28;20035;-65
2021/05/05 08:05:15;;;;;;;7.47;1.27;;;10.80;99.90;;;;;;5094331;28;20032;-66
2021/05/05 08:07:41;;;;;;;2.83;0.80;;;11.20;99.90;;;;;;5104255;28;20031;-65
2021/05/05 08:10:08;;;;;;;5.70;0.82;;;11.70;99.90;;;;;;5094411;28;20031;-65
2021/05/05 08:12:34;;;;;;;3.42;0.73;;;12.20;99.90;;;;;;5096805;28;20485;-65
2021/05/05 08:15:00;;;;;;;6.32;1.15;;;12.60;99.90;;;;;;5095988;28;20087;-65
2021/05/05 08:17:25;;;;;;;6.47;0.93;;;12.50;99.90;;;;;;5094759;28;20478;-65
2021/05/05 08:19:51;;;;;;;7.85;1.13;;;11.60;99.90;;;;;;5096526;28;20416;-65
2021/05/05 08:22:17;;;;;;;8.18;1.70;;;10.70;99.90;;;;;;5094419;28;20845;-65
2021/05/05 08:24:43;;;;;;;5.85;1.00;;;9.90;99.90;;;;;;5097808;28;20035;-65
2021/05/05 08:27:09;;;;;;;8.55;1.27;;;9.50;99.90;;;;;;5098770;27;20118;-65
2021/05/05 08:29:35;;;;;;;7.72;0.82;;;9.30;99.90;;;;;;5094906;28;20039;-65
2021/05/05 08:32:02;;;;;;;9.02;1.17;;;9.10;99.90;;;;;;5091891;28;20036;-65
2021/05/05 08:34:28;;;;;;;5.70;0.70;;;9.00;99.90;;;;;;5096816;28;20092;-65
2021/05/05 08:36:55;;;;;;;9.05;1.23;;;9.20;99.90;;;;;;5102459;27;20394;-65
2021/05/05 08:39:21;;;;;;;8.80;1.38;;;9.80;99.90;;;;;;5095651;28;20028;-65
2021/05/05 08:41:47;;;;;;;9.73;1.10;;;10.10;99.90;;;;;;5098403;28;20088;-65
2021/05/05 08:44:14;;;;;;;11.25;0.82;;;9.90;99.90;;;;;;5094452;28;20032;-65
2021/05/05 08:46:41;;;;;;;5.78;0.80;;;9.50;99.90;;;;;;5098003;28;20116;-65
2021/05/05 08:49:08;;;;;;;3.83;1.20;;;9.40;99.90;;;;;;5096554;28;20822;-65
2021/05/05 08:51:36;;;;;;;4.50;0.60;;;9.40;99.90;;;;;;5100619;28;20123;-65
2021/05/05 08:54:03;;;;;;;4.32;0.50;;;9.20;99.90;;;;;;5099055;28;20457;-65
2021/05/05 08:56:35;;;;;;;3.38;0.45;;;9.00;99.90;;;;;;5099604;28;20030;-65
2021/05/05 08:59:02;;;;;;;3.00;0.88;;;8.80;99.90;;;;;;5097878;28;20040;-65
2021/05/05 09:01:27;;;;;;;6.25;0.77;;;8.50;99.90;;;;;;5099439;28;20024;-65
2021/05/05 09:03:53;;;;;;;1.33;0.20;;;8.40;99.90;;;;;;5098983;27;20107;-65
2021/05/05 09:07:05;;;;;;;1.65;0.20;;;8.40;99.90;;;;;;5098511;28;20071;-66
2021/05/05 09:09:37;;;;;;;4.75;0.95;;;8.80;99.90;;;;;;5095492;28;20759;-65
2021/05/05 09:12:15;;;;;;;8.85;1.48;;;9.30;99.90;;;;;;5103912;28;20045;-65
2021/05/05 09:14:57;;;;;;;2.72;0.40;;;9.80;99.90;;;;;;5097014;28;20040;-65
2021/05/05 09:17:25;;;;;;;4.80;0.68;;;10.10;99.90;;;;;;5098863;28;20040;-64
2021/05/05 09:20:10;;;;;;;2.67;0.55;;;10.40;99.90;;;;;;5098921;27;20061;-65
2021/05/05 09:22:56;;;;;;;6.80;0.50;;;10.70;99.90;;;;;;5099233;28;20046;-65
2021/05/05 09:25:30;;;;;;;4.53;0.75;;;10.90;99.90;;;;;;5099225;28;20044;-65
2021/05/05 09:28:14;;;;;;;5.55;0.90;;;11.10;99.90;;;;;;5100705;27;20510;-65
2021/05/05 09:30:45;;;;;;;10.05;0.93;;;11.40;99.90;;;;;;5095699;28;20594;-65
2021/05/05 09:33:21;;;;;;;3.70;0.63;;;11.40;99.90;;;;;;5096349;28;20036;-65
2021/05/05 09:35:55;;;;;;;4.68;0.70;;;10.80;99.90;;;;;;5095636;28;20046;-65
2021/05/05 09:38:22;;;;;;;8.52;1.33;;;10.20;99.90;;;;;;5100306;27;20055;-66
2021/05/05 09:40:56;;;;;;;5.63;0.90;;;9.70;99.90;;;;;;5097940;28;20055;-65
2021/05/05 09:43:22;;;;;;;9.85;1.08;;;9.30;99.90;;;;;;5098619;27;20045;-65
2021/05/05 09:45:48;;;;;;;6.70;1.00;;;9.10;99.90;;;;;;5098157;27;20024;-65
2021/05/05 09:48:21;;;;;;;8.52;1.02;;;9.30;99.90;;;;;;5097605;28;20042;-65
2021/05/05 09:50:47;;;;;;;6.43;1.33;;;9.90;99.90;;;;;;5099223;28;20122;-65
2021/05/05 09:53:32;;;;;;;14.98;1.80;;;10.40;99.90;;;;;;5097520;28;20305;-65
2021/05/05 09:55:58;;;;;;;13.25;1.33;;;10.50;99.90;;;;;;5096092;28;20112;-65
2021/05/05 09:58:37;;;;;;;8.40;1.88;;;10.70;99.90;;;;;;5094354;28;20040;-65
2021/05/05 10:01:05;;;;;;;15.60;1.10;;;10.90;99.90;;;;;;5101390;27;20058;-65
2021/05/05 10:03:55;;;;;;;13.32;1.42;;;11.20;99.90;;;;;;5104680;27;20438;-65
2021/05/05 10:06:29;;;;;;;9.65;0.50;;;11.60;99.90;;;;;;5094480;28;20036;-66
2021/05/05 10:08:59;;;;;;;8.93;2.08;;;11.90;99.90;;;;;;5089141;28;20032;-65
2021/05/05 10:11:47;;;;;;;4.90;0.98;;;12.30;99.90;;;;;;5093363;28;20058;-65
2021/05/05 10:14:18;;;;;;;9.40;1.13;;;12.90;99.90;;;;;;5105689;27;20031;-66
2021/05/05 10:16:52;;;;;;;8.43;1.38;;;13.00;99.90;;;;;;5108384;27;20561;-65
2021/05/05 10:19:21;;;;;;;8.38;0.73;;;12.90;99.90;;;;;;5107013;27;20047;-66
2021/05/05 10:21:59;;;;;;;9.18;1.13;;;12.70;99.90;;;;;;5102324;27;20036;-65
2021/05/05 10:24:29;;;;;;;7.03;1.00;;;12.50;99.90;;;;;;5105159;27;20059;-65
2021/05/05 10:26:56;;;;;;;5.63;1.00;;;12.70;99.90;;;;;;5106216;27;20032;-65
2021/05/05 10:29:22;;;;;;;9.75;1.45;;;12.60;99.90;;;;;;5107355;27;20031;-65
2021/05/05 10:31:51;;;;;;;8.15;1.10;;;12.30;99.90;;;;;;5105316;27;20053;-65
2021/05/05 10:34:21;;;;;;;10.90;1.48;;;11.90;99.90;;;;;;5107075;27;20046;-65
2021/05/05 10:37:08;;;;;;;6.40;1.15;;;11.70;99.90;;;;;;5109925;27;20387;-64
2021/05/05 10:39:37;;;;;;;8.25;1.10;;;11.60;99.90;;;;;;5114391;27;20050;-64
2021/05/05 10:42:26;;;;;;;12.50;1.35;;;11.70;99.90;;;;;;5112821;27;20044;-65
2021/05/05 10:45:00;;;;;;;9.18;1.33;;;11.80;99.90;;;;;;5110740;27;20038;-65
2021/05/05 10:47:27;;;;;;;8.63;1.15;;;12.00;99.90;;;;;;5115145;27;20035;-66
2021/05/05 10:50:06;;;;;;;11.77;2.42;;;12.30;99.90;;;;;;5114340;27;20095;-65
2021/05/05 10:52:34;;;;;;;11.38;1.55;;;12.30;99.90;;;;;;5110463;27;20408;-66
2021/05/05 10:55:01;;;;;;;11.45;1.95;;;12.10;99.90;;;;;;5106813;27;20032;-65
2021/05/05 10:57:27;;;;;;;12.77;0.88;;;11.80;99.90;;;;;;5101052;27;20577;-62
2021/05/05 11:00:03;;;;;;;6.18;1.55;;;11.80;99.90;;;;;;5116986;27;20039;-66
2021/05/05 11:02:43;;;;;;;12.93;1.60;;;12.00;99.90;;;;;;5109797;27;20036;-63
2021/05/05 11:05:13;;;;;;;11.50;1.35;;;12.00;99.90;;;;;;5114674;27;20416;-65
2021/05/05 11:07:58;;;;;;;8.97;1.73;;;12.30;99.90;;;;;;5118241;27;20087;-63
2021/05/05 11:10:33;;;;;;;13.90;1.38;;;11.60;99.90;;;;;;5101625;27;20035;-65
2021/05/05 11:13:19;;;;;;;6.22;1.35;;;10.70;99.90;;;;;;5099858;28;20500;-65
2021/05/05 11:15:45;;;;;;;9.55;1.42;;;10.20;99.90;;;;;;5089004;28;20047;-64
2021/05/05 11:18:29;;;;;;;10.07;2.35;;;10.00;99.90;;;;;;5095313;27;20676;-65
2021/05/05 11:21:05;;;;;;;11.48;2.00;;;10.00;99.90;;;;;;5101173;27;20075;-64
2021/05/05 11:23:33;;;;;;;11.80;1.17;;;10.20;99.90;;;;;;5100578;27;20087;-65
2021/05/05 11:26:27;;;;;;;7.78;1.25;;;10.40;99.90;;;;;;5107308;27;20036;-65
2021/05/05 11:29:11;;;;;;;34.10;2.53;;;10.40;99.90;;;;;;5101180;28;20040;-65
2021/05/05 11:31:49;;;;;;;6.65;1.58;;;10.30;99.90;;;;;;5102529;28;20543;-65
2021/05/05 11:34:18;;;;;;;8.57;1.45;;;10.30;99.90;;;;;;5105532;28;20527;-65
2021/05/05 11:37:01;;;;;;;8.52;1.10;;;10.50;99.90;;;;;;5103870;28;20077;-62
2021/05/05 11:39:31;;;;;;;13.93;2.67;;;10.90;99.90;;;;;;5106788;27;20083;-64
2021/05/05 11:41:59;;;;;;;8.70;1.40;;;11.10;99.90;;;;;;5102921;28;20031;-65
2021/05/05 11:44:46;;;;;;;8.13;1.63;;;11.50;99.90;;;;;;5102521;28;20027;-65
2021/05/05 11:47:19;;;;;;;17.30;1.48;;;11.80;99.90;;;;;;5102217;28;20043;-62
2021/05/05 11:49:48;;;;;;;2.65;1.08;;;12.00;99.90;;;;;;5099205;28;20123;-65
2021/05/05 11:52:24;;;;;;;7.63;1.00;;;11.80;99.90;;;;;;5106173;28;20108;-64
2021/05/05 11:54:56;;;;;;;9.45;1.13;;;11.70;99.90;;;;;;5109941;27;20032;-70
2021/05/05 11:57:29;;;;;;;8.30;1.25;;;11.60;99.90;;;;;;5105214;27;20040;-61
2021/05/05 11:59:56;;;;;;;8.00;1.05;;;11.40;99.90;;;;;;5104272;28;20473;-62
2021/05/05 12:02:23;;;;;;;4.40;0.90;;;11.30;99.90;;;;;;5103761;28;20047;-63
2021/05/05 12:04:50;;;;;;;6.30;2.00;;;11.00;99.90;;;;;;5104453;28;20038;-65
2021/05/05 12:07:18;;;;;;;10.75;1.35;;;10.60;99.90;;;;;;5097886;28;20169;-64
2021/05/05 12:09:45;;;;;;;7.10;0.80;;;10.70;99.90;;;;;;5093815;28;20111;-63
2021/05/05 12:12:16;;;;;;;5.35;0.80;;;10.70;99.90;;;;;;5095548;28;20092;-64
2021/05/05 12:14:45;;;;;;;6.00;1.00;;;10.70;99.90;;;;;;5097228;28;20034;-63
2021/05/05 12:17:30;;;;;;;9.30;1.30;;;10.70;99.90;;;;;;5100550;28;20042;-66
2021/05/05 12:20:02;;;;;;;8.30;1.33;;;10.60;99.90;;;;;;5090198;28;20046;-63
2021/05/05 12:22:30;;;;;;;7.65;1.88;;;10.60;99.90;;;;;;5092671;28;20051;-66
2021/05/05 12:25:16;;;;;;;4.35;1.00;;;10.40;99.90;;;;;;5101778;28;20028;-65
2021/05/05 12:28:01;;;;;;;3.92;0.77;;;10.50;99.90;;;;;;5102541;27;20031;-66
2021/05/05 12:30:42;;;;;;;4.30;0.98;;;10.60;99.90;;;;;;5098054;28;20097;-65
2021/05/05 12:33:08;;;;;;;10.82;1.63;;;10.80;99.90;;;;;;5098291;27;20052;-64
2021/05/05 12:35:35;;;;;;;5.63;0.93;;;10.80;99.90;;;;;;5100921;27;20027;-66
2021/05/05 12:38:09;;;;;;;12.48;0.98;;;10.80;99.90;;;;;;5100926;28;20036;-65
2021/05/05 12:40:35;;;;;;;8.65;1.58;;;10.90;99.90;;;;;;5098514;28;20073;-65
2021/05/05 12:43:19;;;;;;;10.63;1.60;;;11.10;99.90;;;;;;5101943;27;20036;-65
2021/05/05 12:45:46;;;;;;;8.48;1.98;;;11.20;99.90;;;;;;5099809;28;20035;-66
2021/05/05 12:48:12;;;;;;;8.82;1.30;;;11.40;99.90;;;;;;5098607;28;20043;-62
2021/05/05 12:50:43;;;;;;;16.92;1.98;;;11.50;99.90;;;;;;5098190;28;20039;-63
2021/05/05 12:53:10;;;;;;;7.95;1.25;;;11.50;99.90;;;;;;5098886;28;20104;-66
2021/05/05 12:55:38;;;;;;;8.00;0.88;;;11.70;99.90;;;;;;5100075;27;20054;-65
2021/05/05 12:58:15;;;;;;;6.28;1.25;;;11.50;98.40;;;;;;5117306;27;20051;-66
2021/05/05 13:00:44;;;;;;;13.80;1.48;;;11.50;99.90;;;;;;5106715;28;20415;-65
2021/05/05 13:03:12;;;;;;;7.63;1.27;;;11.50;99.90;;;;;;5106800;28;20467;-65